createdAt,value
2019-01-16T00:02:24.206Z,15.73
2019-01-16T00:05:11.600Z,16.23
2019-01-16T00:13:23.893Z,14.95
2019-01-16T00:16:11.589Z,14.85
2019-01-16T00:18:59.273Z,14.95
2019-01-16T00:22:06.335Z,14.80
2019-01-16T00:24:53.765Z,14.03
2019-01-16T00:27:41.178Z,17.00
2019-01-16T00:30:49.535Z,12.98
2019-01-16T00:33:36.951Z,13.30
2019-01-16T00:36:46.714Z,14.45
2019-01-16T00:42:44.031Z,14.75
2019-01-16T00:48:24.636Z,16.52
2019-01-16T00:51:11.822Z,13.00
2019-01-16T00:54:18.545Z,12.13
2019-01-16T00:57:05.971Z,12.53
2019-01-16T00:59:53.379Z,11.70
2019-01-16T01:02:40.807Z,12.25
2019-01-16T01:05:49.163Z,12.83
2019-01-16T01:08:36.836Z,12.40
2019-01-16T01:11:24.602Z,12.78
2019-01-16T01:14:12.096Z,12.47
2019-01-16T01:16:59.791Z,11.20
2019-01-16T01:19:47.239Z,12.43
2019-01-16T01:22:34.637Z,11.50
2019-01-16T01:33:25.793Z,11.28
2019-01-16T01:36:13.232Z,10.30
2019-01-16T01:41:49.612Z,10.20
2019-01-16T01:44:37.022Z,9.83
2019-01-16T01:50:00.007Z,14.15
2019-01-16T01:52:47.435Z,11.08
2019-01-16T01:58:44.743Z,13.40
2019-01-16T02:01:51.775Z,11.12
2019-01-16T02:04:39.213Z,12.43
2019-01-16T02:07:26.628Z,12.13
2019-01-16T02:10:14.069Z,12.15
2019-01-16T02:13:01.492Z,13.20
2019-01-16T02:15:48.931Z,13.80
2019-01-16T02:18:36.591Z,15.08
2019-01-16T02:21:44.961Z,13.40
2019-01-16T02:24:32.377Z,10.87
2019-01-16T02:29:58.846Z,13.38
2019-01-16T02:35:46.538Z,10.50
2019-01-16T02:38:33.985Z,12.73
2019-01-16T02:41:10.009Z,12.43
2019-01-16T02:43:51.824Z,9.83
2019-01-16T02:46:21.760Z,11.40
2019-01-16T02:48:56.052Z,12.43
2019-01-16T02:51:31.940Z,10.60
2019-01-16T02:54:01.891Z,9.90
2019-01-16T02:56:32.069Z,11.87
2019-01-16T02:59:04.786Z,9.70
2019-01-16T03:01:40.410Z,10.85
2019-01-16T03:04:25.231Z,11.63
2019-01-16T03:07:00.856Z,9.30
2019-01-16T03:09:39.311Z,12.07
2019-01-16T03:12:18.205Z,11.28
2019-01-16T03:14:48.233Z,10.37
2019-01-16T03:17:20.848Z,11.63
2019-01-16T03:19:53.491Z,8.15
2019-01-16T03:22:25.842Z,11.40
2019-01-16T03:24:55.769Z,10.40
2019-01-16T03:27:34.362Z,9.53
2019-01-16T03:30:04.539Z,9.53
2019-01-16T03:32:34.486Z,8.93
2019-01-16T03:35:04.420Z,11.05
2019-01-16T03:37:34.355Z,10.32
2019-01-16T03:40:04.352Z,9.80
2019-01-16T03:42:34.610Z,12.20
2019-01-16T03:45:04.527Z,9.10
2019-01-16T03:47:39.865Z,11.75
2019-01-16T03:50:13.915Z,11.35
2019-01-16T03:52:49.881Z,9.73
2019-01-16T03:55:22.809Z,10.85
2019-01-16T03:57:58.616Z,11.08
2019-01-16T04:00:37.334Z,10.20
2019-01-16T04:03:23.615Z,10.90
2019-01-16T04:05:53.538Z,9.58
2019-01-16T04:08:26.176Z,10.43
2019-01-16T04:10:56.091Z,10.30
2019-01-16T04:13:35.079Z,9.43
2019-01-16T04:16:07.885Z,10.55
2019-01-16T04:18:53.981Z,10.53
2019-01-16T04:21:26.576Z,9.03
2019-01-16T04:24:14.436Z,8.88
2019-01-16T04:26:44.361Z,8.80
2019-01-16T04:29:29.957Z,7.78
2019-01-16T04:32:05.658Z,10.53
2019-01-16T04:34:44.475Z,8.85
2019-01-16T04:37:23.144Z,8.03
2019-01-16T04:39:53.092Z,9.03
2019-01-16T04:42:23.013Z,8.28
2019-01-16T04:44:55.870Z,7.28
2019-01-16T04:47:28.506Z,9.58
2019-01-16T04:50:10.489Z,7.33
2019-01-16T04:52:49.114Z,9.30
2019-01-16T04:55:19.048Z,9.13
2019-01-16T04:57:51.937Z,7.70
2019-01-16T05:00:21.869Z,10.38
2019-01-16T05:02:54.520Z,9.00
2019-01-16T05:05:30.395Z,7.50
2019-01-16T05:08:15.156Z,11.75
2019-01-16T05:10:47.764Z,8.93
2019-01-16T05:13:33.673Z,11.85
2019-01-16T05:16:06.020Z,10.03
2019-01-16T05:18:44.780Z,10.25
2019-01-16T05:21:23.556Z,12.25
2019-01-16T05:24:02.285Z,10.80
2019-01-16T05:26:32.213Z,12.00
2019-01-16T05:29:18.522Z,11.48
2019-01-16T05:31:50.893Z,12.35
2019-01-16T05:34:38.712Z,10.53
2019-01-16T05:37:17.157Z,12.35
2019-01-16T05:39:47.117Z,10.63
2019-01-16T05:42:17.052Z,15.45
2019-01-16T05:44:49.717Z,11.78
2019-01-16T05:47:19.658Z,12.83
2019-01-16T05:50:07.685Z,10.55
2019-01-16T05:52:37.608Z,11.88
2019-01-16T05:55:11.607Z,13.93
2019-01-16T05:57:47.370Z,16.62
2019-01-16T06:00:22.869Z,12.95
2019-01-16T06:03:07.466Z,12.60
2019-01-16T06:05:40.384Z,10.78
2019-01-16T06:08:12.808Z,15.72
2019-01-16T06:11:00.930Z,11.65
2019-01-16T06:13:30.870Z,49.53
2019-01-16T06:16:16.751Z,32.20
2019-01-16T06:18:46.675Z,17.67
2019-01-16T06:21:34.957Z,9.28
2019-01-16T06:24:07.542Z,14.90
2019-01-16T06:26:43.235Z,11.65
2019-01-16T06:29:31.017Z,12.30
2019-01-16T06:32:18.837Z,10.70
2019-01-16T06:34:54.717Z,11.63
2019-01-16T06:37:27.306Z,11.97
2019-01-16T06:39:57.244Z,14.20
2019-01-16T06:42:30.230Z,9.33
2019-01-16T06:45:05.859Z,9.30
2019-01-16T06:47:41.444Z,10.65
2019-01-16T06:50:23.663Z,11.80
2019-01-16T06:52:59.875Z,9.80
2019-01-16T06:55:35.639Z,9.95
2019-01-16T06:58:17.750Z,7.87
2019-01-16T07:00:47.704Z,10.05
2019-01-16T07:03:17.637Z,10.70
2019-01-16T07:05:50.539Z,9.30
2019-01-16T07:08:22.922Z,10.25
2019-01-16T07:10:52.843Z,10.35
2019-01-16T07:13:38.722Z,12.55
2019-01-16T07:16:08.639Z,9.70
2019-01-16T07:18:41.500Z,8.38
2019-01-16T07:21:27.425Z,7.58
2019-01-16T07:24:13.295Z,8.93
2019-01-16T07:26:55.086Z,15.10
2019-01-16T07:29:40.691Z,8.10
2019-01-16T07:32:25.568Z,8.73
2019-01-16T07:35:11.912Z,8.33
2019-01-16T07:37:50.598Z,9.48
2019-01-16T07:40:23.378Z,6.90
2019-01-16T07:43:05.119Z,8.03
2019-01-16T07:45:35.083Z,7.93
2019-01-16T07:48:21.329Z,10.95
2019-01-16T07:50:51.275Z,7.70
2019-01-16T07:53:21.196Z,8.60
2019-01-16T07:56:07.396Z,7.25
2019-01-16T07:58:39.760Z,9.45
2019-01-16T08:01:09.683Z,8.55
2019-01-16T08:03:55.554Z,7.95
2019-01-16T08:06:31.203Z,9.60
2019-01-16T08:09:19.259Z,8.60
2019-01-16T08:12:00.969Z,6.58
2019-01-16T08:14:47.110Z,7.13
2019-01-16T08:17:19.754Z,8.97
2019-01-16T08:19:58.464Z,7.42
2019-01-16T08:22:40.428Z,7.13
2019-01-16T08:25:25.377Z,6.65
2019-01-16T08:28:11.392Z,7.22
2019-01-16T08:30:41.585Z,8.55
2019-01-16T08:33:16.927Z,5.58
2019-01-16T08:35:49.484Z,9.35
2019-01-16T08:38:28.541Z,6.65
2019-01-16T08:41:10.442Z,9.03
2019-01-16T08:43:55.155Z,7.28
2019-01-16T08:46:40.141Z,6.10
2019-01-16T08:49:22.071Z,8.65
2019-01-16T08:51:57.794Z,7.75
2019-01-16T08:54:27.724Z,8.67
2019-01-16T08:57:13.330Z,8.53
2019-01-16T08:59:49.104Z,5.60
2019-01-16T09:02:33.904Z,9.40
2019-01-16T09:05:19.817Z,6.05
2019-01-16T09:07:49.763Z,5.40
2019-01-16T09:10:22.580Z,8.23
2019-01-16T09:12:52.511Z,7.90
2019-01-16T09:15:37.285Z,5.58
2019-01-16T09:18:07.462Z,6.50
2019-01-16T09:20:40.156Z,9.68
2019-01-16T09:23:18.181Z,10.72
2019-01-16T09:26:05.959Z,7.63
2019-01-16T09:28:39.186Z,7.22
2019-01-16T09:31:17.962Z,6.95
2019-01-16T09:33:47.879Z,5.87
2019-01-16T09:36:26.560Z,6.50
2019-01-16T09:39:11.360Z,8.18
2019-01-16T09:41:41.552Z,8.08
2019-01-16T09:44:14.145Z,6.50
2019-01-16T09:46:50.320Z,8.10
2019-01-16T09:49:26.146Z,8.58
2019-01-16T09:52:25.506Z,8.97
2019-01-16T09:55:04.522Z,9.25
2019-01-16T09:57:50.457Z,8.38
2019-01-16T10:00:36.712Z,10.75
2019-01-16T10:03:09.068Z,11.85
2019-01-16T10:05:56.937Z,10.95
2019-01-16T10:08:29.900Z,9.83
2019-01-16T10:11:05.666Z,15.35
2019-01-16T10:13:38.083Z,11.00
2019-01-16T10:16:26.187Z,13.58
2019-01-16T10:19:11.891Z,11.70
2019-01-16T10:21:56.656Z,10.93
2019-01-16T10:24:26.631Z,16.90
2019-01-16T10:27:12.416Z,16.77
2019-01-16T10:29:45.120Z,15.28
2019-01-16T10:32:17.820Z,19.07
2019-01-16T10:35:05.401Z,29.87
2019-01-16T10:37:41.007Z,13.90
2019-01-16T10:40:29.018Z,14.35
2019-01-16T10:43:01.671Z,17.83
2019-01-16T10:45:31.625Z,15.80
2019-01-16T10:48:04.615Z,19.07
2019-01-16T10:50:52.489Z,20.40
2019-01-16T10:53:40.566Z,17.98
2019-01-16T10:56:26.453Z,19.32
2019-01-16T10:59:04.989Z,23.00
2019-01-16T11:01:37.965Z,18.30
2019-01-16T11:04:25.948Z,19.87
2019-01-16T11:07:01.566Z,16.12
2019-01-16T11:09:46.316Z,21.77
2019-01-16T11:12:16.258Z,15.65
2019-01-16T11:15:02.411Z,16.43
2019-01-16T11:17:48.528Z,13.48
2019-01-16T11:20:21.221Z,14.70
2019-01-16T11:22:57.068Z,15.18
2019-01-16T11:25:32.912Z,14.53
2019-01-16T11:28:11.387Z,13.98
2019-01-16T11:30:58.889Z,11.60
2019-01-16T11:33:44.777Z,12.33
2019-01-16T11:36:29.255Z,11.60
2019-01-16T11:39:11.237Z,19.07
2019-01-16T11:41:43.932Z,14.87
2019-01-16T11:44:25.445Z,14.98
2019-01-16T11:46:55.391Z,16.13
2019-01-16T11:49:28.240Z,16.27
2019-01-16T11:52:03.868Z,14.03
2019-01-16T11:54:45.592Z,14.35
2019-01-16T11:57:18.433Z,15.98
2019-01-16T12:00:00.471Z,15.00
2019-01-16T12:02:47.049Z,14.15
2019-01-16T12:05:25.621Z,12.73
2019-01-16T12:08:07.440Z,14.65
2019-01-16T12:10:53.668Z,13.15
2019-01-16T12:13:39.213Z,12.33
2019-01-16T12:16:09.166Z,14.47
2019-01-16T12:18:50.992Z,18.12
2019-01-16T12:21:29.590Z,13.62
2019-01-16T12:24:07.953Z,10.35
2019-01-16T12:26:43.568Z,13.35
2019-01-16T12:29:18.952Z,18.05
2019-01-16T12:31:51.636Z,13.45
2019-01-16T12:34:27.289Z,12.10
2019-01-16T12:36:59.980Z,16.07
2019-01-16T12:39:30.164Z,13.30
2019-01-16T12:42:06.081Z,16.25
2019-01-16T12:44:39.221Z,16.73
2019-01-16T12:47:20.920Z,16.37
2019-01-16T12:49:56.376Z,15.57
2019-01-16T12:52:29.225Z,12.30
2019-01-16T12:55:02.121Z,14.63
2019-01-16T12:57:37.745Z,13.03
2019-01-16T13:00:31.989Z,14.20
2019-01-16T13:03:04.365Z,14.03
2019-01-16T13:05:34.302Z,15.65
2019-01-16T13:08:06.950Z,13.03
2019-01-16T13:10:42.532Z,15.48
2019-01-16T13:13:24.009Z,15.18
2019-01-16T13:16:06.293Z,13.45
2019-01-16T13:18:36.248Z,14.93
2019-01-16T13:21:23.007Z,16.15
2019-01-16T13:24:10.856Z,14.33
2019-01-16T13:26:56.469Z,20.40
2019-01-16T13:29:26.425Z,13.03
2019-01-16T13:32:11.387Z,16.85
2019-01-16T13:34:41.342Z,16.45
2019-01-16T13:37:20.034Z,17.70
2019-01-16T13:39:56.305Z,13.55
2019-01-16T13:42:26.501Z,9.75
2019-01-16T13:45:12.620Z,13.15
2019-01-16T13:47:42.781Z,18.52
2019-01-16T13:50:26.620Z,16.77
2019-01-16T13:53:12.559Z,11.75
2019-01-16T13:55:51.275Z,16.40
2019-01-16T13:58:21.744Z,14.65
2019-01-16T14:00:54.341Z,13.30
2019-01-16T14:03:27.203Z,12.10
2019-01-16T14:05:57.144Z,14.13
2019-01-16T14:08:27.076Z,14.47
2019-01-16T14:11:09.258Z,13.32
2019-01-16T14:13:41.843Z,21.62
2019-01-16T14:16:12.021Z,17.83
2019-01-16T14:18:57.993Z,9.58
2019-01-16T14:21:30.607Z,12.80
2019-01-16T14:24:02.986Z,14.83
2019-01-16T14:26:32.927Z,15.43
2019-01-16T14:29:11.547Z,13.55
2019-01-16T14:31:37.723Z,11.97
2019-01-16T14:34:24.188Z,10.95
2019-01-16T14:36:56.537Z,15.47
2019-01-16T14:39:44.067Z,15.13
2019-01-16T14:42:19.794Z,13.00
2019-01-16T14:45:07.865Z,10.43
2019-01-16T14:47:40.682Z,10.97
2019-01-16T14:50:26.706Z,13.03
2019-01-16T14:52:59.358Z,19.12
2019-01-16T14:55:37.967Z,12.60
2019-01-16T14:58:08.887Z,17.85
2019-01-16T15:00:54.718Z,11.85
2019-01-16T15:03:33.132Z,16.75
2019-01-16T15:06:19.249Z,11.85
2019-01-16T15:09:01.250Z,13.43
2019-01-16T15:11:39.749Z,14.90
2019-01-16T15:14:22.885Z,14.83
2019-01-16T15:16:58.571Z,14.85
2019-01-16T15:19:44.272Z,12.82
2019-01-16T15:22:30.834Z,14.33
2019-01-16T15:25:15.704Z,16.32
2019-01-16T15:27:45.902Z,13.13
2019-01-16T15:30:17.072Z,15.35
2019-01-16T15:32:55.688Z,16.77
2019-01-16T15:35:28.332Z,17.07
2019-01-16T15:37:58.267Z,17.17
2019-01-16T15:40:30.742Z,20.12
2019-01-16T15:43:15.557Z,16.85
2019-01-16T15:45:45.491Z,20.17
2019-01-16T15:48:18.192Z,15.93
2019-01-16T15:50:54.047Z,21.42
2019-01-16T15:53:32.543Z,14.90
2019-01-16T15:56:05.411Z,18.73
2019-01-16T15:58:38.256Z,18.23
2019-01-16T16:01:24.058Z,16.00
2019-01-16T16:03:59.546Z,24.35
2019-01-16T16:06:29.706Z,16.10
2019-01-16T16:09:15.539Z,16.47
2019-01-16T16:11:45.710Z,16.42
2019-01-16T16:14:24.469Z,17.85
2019-01-16T16:16:54.703Z,15.95
2019-01-16T16:19:30.393Z,16.93
2019-01-16T16:22:03.247Z,17.55
2019-01-16T16:24:38.643Z,16.82
2019-01-16T16:27:24.761Z,15.50
2019-01-16T16:30:06.543Z,14.40
2019-01-16T16:32:48.499Z,11.53
2019-01-16T16:35:30.321Z,14.70
2019-01-16T16:38:02.995Z,13.78
2019-01-16T16:40:45.060Z,14.47
2019-01-16T16:55:30.882Z,14.60
2019-01-16T16:58:18.317Z,12.90
2019-01-16T17:03:58.878Z,12.35
2019-01-16T17:06:46.291Z,11.38
2019-01-16T17:09:53.105Z,11.67
2019-01-16T17:12:40.524Z,12.33
2019-01-16T17:15:48.907Z,13.40
2019-01-16T17:18:39.677Z,11.15
2019-01-16T17:24:38.039Z,11.75
2019-01-16T17:32:43.781Z,9.53
2019-01-16T17:35:50.566Z,12.20
2019-01-16T17:38:37.998Z,11.15
2019-01-16T17:41:25.401Z,9.65
2019-01-16T17:44:12.835Z,9.43
2019-01-16T17:50:05.182Z,9.30
2019-01-16T17:55:41.558Z,19.82
2019-01-16T17:58:48.304Z,13.75
2019-01-16T18:01:35.978Z,13.20
2019-01-16T18:10:49.566Z,13.50
2019-01-16T18:13:36.987Z,14.13
2019-01-16T18:16:45.324Z,14.40
2019-01-16T18:19:32.742Z,15.00
2019-01-16T18:22:20.161Z,9.28
2019-01-16T18:28:20.389Z,8.58
2019-01-16T18:34:16.399Z,8.90
2019-01-16T18:42:28.362Z,13.57
2019-01-16T18:45:35.166Z,10.58
2019-01-16T18:48:22.588Z,10.38
2019-01-16T18:51:10.012Z,10.93
2019-01-16T18:53:57.435Z,11.18
2019-01-16T18:56:45.123Z,12.00
2019-01-16T18:59:32.525Z,14.70
2019-01-16T19:02:19.959Z,11.15
2019-01-16T19:05:27.353Z,15.60
2019-01-16T19:08:14.775Z,14.65
2019-01-16T19:11:21.567Z,10.95
2019-01-16T19:14:09.247Z,10.83
2019-01-16T19:16:56.665Z,8.13
2019-01-16T19:19:44.102Z,11.83
2019-01-16T19:27:59.535Z,12.25
2019-01-16T19:33:26.264Z,12.55
2019-01-16T19:36:13.687Z,11.57
2019-01-16T19:39:01.090Z,10.93
2019-01-16T19:45:03.307Z,14.50
2019-01-16T19:47:50.732Z,11.75
2019-01-16T19:50:38.409Z,13.90
2019-01-16T19:53:25.835Z,12.75
2019-01-16T19:56:13.239Z,13.87
2019-01-16T19:59:00.743Z,12.50
2019-01-16T20:04:56.492Z,17.15
2019-01-16T20:08:05.058Z,15.07
2019-01-16T20:11:11.872Z,10.55
2019-01-16T20:16:48.268Z,13.62
2019-01-16T20:19:55.047Z,17.27
2019-01-16T20:22:42.474Z,13.88
2019-01-16T20:25:29.879Z,10.08
2019-01-16T20:28:17.302Z,14.58
2019-01-16T20:31:04.709Z,14.63
2019-01-16T20:33:52.143Z,13.83
2019-01-16T20:36:39.812Z,12.77
2019-01-16T20:39:48.161Z,13.45
2019-01-16T20:42:35.833Z,15.70
2019-01-16T20:45:44.189Z,15.60
2019-01-16T20:48:31.878Z,15.30
2019-01-16T20:53:54.578Z,17.10
2019-01-16T21:01:56.495Z,16.42
2019-01-16T21:04:43.946Z,18.70
2019-01-16T21:07:31.398Z,17.87
2019-01-16T21:13:27.230Z,16.48
2019-01-16T21:16:14.631Z,18.30
2019-01-16T21:21:41.133Z,14.55
2019-01-16T21:29:58.787Z,17.40
2019-01-16T21:33:10.485Z,21.05
2019-01-16T21:38:30.178Z,13.55
2019-01-16T21:41:17.867Z,14.70
2019-01-16T21:44:05.288Z,18.27
2019-01-16T21:47:14.502Z,16.42
2019-01-16T21:50:02.185Z,18.85
2019-01-16T21:56:21.536Z,15.18
2019-01-16T21:59:08.972Z,13.88
2019-01-16T22:08:01.442Z,16.07
2019-01-16T22:11:08.237Z,20.23
2019-01-16T22:13:55.658Z,13.80
2019-01-16T22:30:14.197Z,16.73
2019-01-16T22:35:50.825Z,14.55
2019-01-16T22:44:22.918Z,18.15
2019-01-16T22:55:50.930Z,11.25
2019-01-16T22:58:38.368Z,17.85
2019-01-16T23:01:46.936Z,13.50
2019-01-16T23:04:34.626Z,15.18
2019-01-16T23:07:22.028Z,15.00
2019-01-16T23:10:09.697Z,14.25
2019-01-16T23:12:57.355Z,19.25
2019-01-16T23:15:44.800Z,15.25
2019-01-16T23:21:40.889Z,13.68
2019-01-16T23:24:28.308Z,12.53
2019-01-16T23:27:15.740Z,15.45
2019-01-16T23:39:01.618Z,18.40
2019-01-16T23:41:49.027Z,18.60
2019-01-16T23:47:46.897Z,16.73
2019-01-16T23:50:34.309Z,19.67
2019-01-16T23:53:21.743Z,16.80
2019-01-16T23:56:09.162Z,17.42
